Terminal Aerodrome Forecast
Issued by NWS

Home | Current Version | Previous Version | Text Only | Print | Product List | Glossary On
Versions: 1 2 3 4 5 6 7 8 9 10 11 12 13
000
FTUS45 KFGZ 261135
TAFGCN
TAF
KGCN 261135Z 2612/2712 VRB03KT P6SM BKN090
     FM261500 25010KT P6SM SCT060 OVC080
     FM261800 26010G18KT P6SM SCT080 BKN150
      TEMPO 2619/2623 P6SM -TSRA BKN060CB
     FM270300 VRB03KT P6SM SCT100=

USA.gov is the U.S. government's official web portal to all federal, state and local government web resources and services.